Time;durP1;ratioP1;P1;durP2;ratioP2;P2;SDS_P1;SDS_P2;PMS_P1;PMS_P2;Temp;Humidity;BMP_temperature;BMP_pressure;BME280_temperature;BME280_humidity;BME280_pressure;Samples;Min_cycle;Max_cycle;Signal;HPM_P1;HPM_P2
2021/05/02 00:02:08;;;;;;;7.45;6.50;;;12.10;68.50;;;;;;4991383;28;20073;-65
2021/05/02 00:04:34;;;;;;;13.40;6.55;;;12.10;68.90;;;;;;4990285;28;20026;-65
2021/05/02 00:07:03;;;;;;;8.98;6.10;;;12.10;69.00;;;;;;4990851;28;20045;-64
2021/05/02 00:09:32;;;;;;;8.48;6.20;;;12.10;69.10;;;;;;4990205;28;20022;-65
2021/05/02 00:11:59;;;;;;;8.48;6.88;;;12.10;69.20;;;;;;4990810;28;20031;-65
2021/05/02 00:14:25;;;;;;;9.43;7.03;;;12.10;69.10;;;;;;4972448;28;20133;-65
2021/05/02 00:16:52;;;;;;;7.55;5.97;;;12.10;69.30;;;;;;4990403;28;20052;-65
2021/05/02 00:19:19;;;;;;;7.97;6.15;;;12.10;68.90;;;;;;4990443;28;20030;-64
2021/05/02 00:21:46;;;;;;;6.38;5.70;;;12.00;68.70;;;;;;4972252;28;20128;-64
2021/05/02 00:24:13;;;;;;;9.55;6.28;;;12.00;68.50;;;;;;4990737;28;20401;-65
2021/05/02 00:26:39;;;;;;;7.43;6.07;;;12.00;68.20;;;;;;4989923;28;20045;-66
2021/05/02 00:29:09;;;;;;;6.75;5.35;;;12.00;68.30;;;;;;4990256;28;20349;-64
2021/05/02 00:31:35;;;;;;;8.00;5.43;;;12.00;67.60;;;;;;4972340;28;20029;-64
2021/05/02 00:34:01;;;;;;;7.97;5.75;;;12.00;67.60;;;;;;4973046;28;20169;-64
2021/05/02 00:36:27;;;;;;;6.30;5.35;;;12.00;67.50;;;;;;4989642;28;20321;-65
2021/05/02 00:38:52;;;;;;;10.60;5.70;;;12.00;67.00;;;;;;4990043;28;20039;-64
2021/05/02 00:41:27;;;;;;;7.53;5.22;;;12.00;67.30;;;;;;4972133;28;20539;-64
2021/05/02 00:43:58;;;;;;;7.72;5.70;;;12.00;67.30;;;;;;4972306;28;20034;-64
2021/05/02 00:46:38;;;;;;;8.93;5.97;;;12.00;67.10;;;;;;4989796;28;20027;-68
2021/05/02 00:49:14;;;;;;;7.63;6.57;;;11.90;67.30;;;;;;4990001;28;20258;-65
2021/05/02 00:51:42;;;;;;;7.00;4.82;;;12.00;67.10;;;;;;4972282;28;20129;-65
2021/05/02 00:54:14;;;;;;;11.05;5.97;;;12.00;67.30;;;;;;4990169;28;20109;-65
2021/05/02 00:56:53;;;;;;;6.18;5.28;;;12.00;67.00;;;;;;4989656;28;20046;-65
2021/05/02 00:59:25;;;;;;;6.35;5.03;;;11.90;67.10;;;;;;4990512;28;20042;-66
2021/05/02 01:01:52;;;;;;;8.43;5.25;;;12.00;66.60;;;;;;4989888;28;20487;-65
2021/05/02 01:04:31;;;;;;;10.80;5.15;;;12.00;67.10;;;;;;4990280;28;20025;-65
2021/05/02 01:07:03;;;;;;;7.22;5.43;;;11.90;67.00;;;;;;4972590;28;20384;-65
2021/05/02 01:09:30;;;;;;;6.75;4.50;;;11.90;67.20;;;;;;4992870;28;20034;-64
2021/05/02 01:11:58;;;;;;;7.90;5.30;;;11.90;67.30;;;;;;4994028;28;20026;-65
2021/05/02 01:14:26;;;;;;;6.63;5.90;;;12.00;66.50;;;;;;4993553;28;20172;-65
2021/05/02 01:16:56;;;;;;;7.45;5.55;;;11.70;66.90;;;;;;4976139;28;20034;-64
2021/05/02 01:19:22;;;;;;;7.22;5.53;;;11.90;66.70;;;;;;4993967;28;20023;-65
2021/05/02 01:21:50;;;;;;;6.15;5.00;;;11.80;66.50;;;;;;4975683;28;20100;-65
2021/05/02 01:24:16;;;;;;;11.77;5.15;;;11.70;66.90;;;;;;4993736;28;20030;-64
2021/05/02 01:26:45;;;;;;;7.05;4.80;;;11.80;67.10;;;;;;4993088;28;20041;-65
2021/05/02 01:29:12;;;;;;;5.97;5.13;;;11.80;67.00;;;;;;4975692;28;20030;-65
2021/05/02 01:31:40;;;;;;;9.10;5.13;;;11.70;66.90;;;;;;4975527;28;20060;-64
2021/05/02 01:34:05;;;;;;;7.43;5.20;;;11.70;67.20;;;;;;4975915;28;20101;-67
2021/05/02 01:36:31;;;;;;;5.07;4.50;;;11.70;67.00;;;;;;4975232;28;20033;-64
2021/05/02 01:38:59;;;;;;;8.80;5.45;;;11.70;67.10;;;;;;4975859;28;20092;-64
2021/05/02 01:41:25;;;;;;;6.10;5.32;;;11.70;67.30;;;;;;4975474;28;20038;-65
2021/05/02 01:43:52;;;;;;;7.20;5.05;;;11.60;67.60;;;;;;4974719;28;20476;-66
2021/05/02 01:46:40;;;;;;;8.23;5.75;;;11.50;67.60;;;;;;4975737;28;20057;-65
2021/05/02 01:49:09;;;;;;;8.40;4.93;;;11.70;67.10;;;;;;4993480;28;20477;-66
2021/05/02 01:51:37;;;;;;;8.00;5.43;;;11.60;67.60;;;;;;4993208;28;20117;-66
2021/05/02 01:54:03;;;;;;;5.55;4.80;;;11.60;67.40;;;;;;4993225;28;20037;-65
2021/05/02 01:56:31;;;;;;;6.00;5.07;;;11.50;68.00;;;;;;4992435;28;20391;-65
2021/05/02 01:58:59;;;;;;;8.63;5.93;;;11.60;68.30;;;;;;4993186;28;20145;-65
2021/05/02 02:01:27;;;;;;;6.70;5.53;;;11.60;68.40;;;;;;4975570;28;20096;-65
2021/05/02 02:03:56;;;;;;;6.20;5.57;;;11.60;68.10;;;;;;4992705;28;20033;-66
2021/05/02 02:06:23;;;;;;;9.02;5.60;;;11.50;68.30;;;;;;4993243;28;20026;-65
2021/05/02 02:08:48;;;;;;;7.00;5.63;;;11.50;68.30;;;;;;4974883;28;20226;-66
2021/05/02 02:11:14;;;;;;;7.20;5.35;;;11.60;68.50;;;;;;4992781;28;20062;-64
2021/05/02 02:13:45;;;;;;;6.75;5.57;;;11.40;68.80;;;;;;4992034;28;20488;-64
2021/05/02 02:16:10;;;;;;;8.45;5.47;;;11.30;68.80;;;;;;4992758;28;20445;-65
2021/05/02 02:18:36;;;;;;;6.80;5.30;;;11.40;69.30;;;;;;4992012;28;20054;-65
2021/05/02 02:21:02;;;;;;;6.05;5.45;;;11.40;69.50;;;;;;4991571;28;20093;-65
2021/05/02 02:23:30;;;;;;;6.35;5.70;;;11.40;69.50;;;;;;4975060;28;20034;-66
2021/05/02 02:26:01;;;;;;;8.45;5.53;;;11.50;69.30;;;;;;4992383;28;20027;-64
2021/05/02 02:28:27;;;;;;;8.73;5.63;;;11.40;69.70;;;;;;4992640;28;20022;-64
2021/05/02 02:30:58;;;;;;;6.82;5.65;;;11.30;70.40;;;;;;4992324;28;20053;-65
2021/05/02 02:33:30;;;;;;;6.43;5.47;;;11.40;69.70;;;;;;4974859;28;20329;-65
2021/05/02 02:35:56;;;;;;;6.30;5.40;;;11.50;69.60;;;;;;4992704;28;20110;-66
2021/05/02 02:38:24;;;;;;;6.05;5.45;;;11.30;70.20;;;;;;4974495;28;20125;-66
2021/05/02 02:40:52;;;;;;;7.70;5.50;;;11.20;70.70;;;;;;4974405;28;20205;-66
2021/05/02 02:43:24;;;;;;;8.57;5.60;;;11.20;71.00;;;;;;4991954;28;20030;-66
2021/05/02 02:45:55;;;;;;;8.80;5.18;;;11.30;71.00;;;;;;4973891;28;20081;-65
2021/05/02 02:48:24;;;;;;;6.57;5.35;;;11.30;71.10;;;;;;4974596;28;20368;-65
2021/05/02 02:50:55;;;;;;;7.47;5.45;;;11.30;71.40;;;;;;4974049;28;20090;-66
2021/05/02 02:53:22;;;;;;;7.22;5.07;;;11.20;71.60;;;;;;4974657;28;20046;-65
2021/05/02 02:56:09;;;;;;;6.65;5.30;;;11.30;71.50;;;;;;4973796;28;20030;-65
2021/05/02 02:59:09;;;;;;;6.78;5.22;;;11.30;71.50;;;;;;4991684;28;20038;-65
2021/05/02 03:01:37;;;;;;;5.80;5.20;;;11.30;71.90;;;;;;4976774;28;20110;-65
2021/05/02 03:04:06;;;;;;;6.68;5.60;;;11.30;72.00;;;;;;4974087;28;20049;-65
2021/05/02 03:06:34;;;;;;;8.43;5.88;;;11.20;72.10;;;;;;4991771;28;20030;-79
2021/05/02 03:09:00;;;;;;;7.95;5.22;;;11.10;72.50;;;;;;4991789;28;20032;-65
2021/05/02 03:11:26;;;;;;;7.63;6.28;;;11.10;72.90;;;;;;4974115;28;20121;-65
2021/05/02 03:13:53;;;;;;;9.00;6.32;;;11.10;73.20;;;;;;4973325;28;20218;-64
2021/05/02 03:16:24;;;;;;;6.95;5.50;;;11.00;73.80;;;;;;4991832;28;20145;-65
2021/05/02 03:19:16;;;;;;;9.68;5.93;;;11.10;73.30;;;;;;4973748;28;20384;-66
2021/05/02 03:22:05;;;;;;;8.15;6.40;;;11.00;73.90;;;;;;4991493;28;20080;-65
2021/05/02 03:24:33;;;;;;;8.75;5.60;;;10.90;74.60;;;;;;4973849;28;20022;-65
2021/05/02 03:27:25;;;;;;;7.68;5.05;;;11.00;74.40;;;;;;4991140;28;20476;-65
2021/05/02 03:29:51;;;;;;;6.80;5.63;;;11.00;74.50;;;;;;4981932;28;20129;-65
2021/05/02 03:32:23;;;;;;;6.30;5.03;;;11.00;74.70;;;;;;4991227;28;20088;-66
2021/05/02 03:34:50;;;;;;;9.05;5.40;;;11.10;73.80;;;;;;4990774;28;20057;-66
2021/05/02 03:37:23;;;;;;;8.32;5.30;;;11.20;73.70;;;;;;4991591;28;20034;-65
2021/05/02 03:39:50;;;;;;;6.88;5.68;;;11.00;74.20;;;;;;4990924;28;20053;-66
2021/05/02 03:42:17;;;;;;;8.68;5.35;;;11.00;74.40;;;;;;4991102;28;20105;-66
2021/05/02 03:44:43;;;;;;;9.93;5.45;;;11.10;74.40;;;;;;4990163;28;20184;-66
2021/05/02 03:47:08;;;;;;;8.65;5.53;;;10.90;74.70;;;;;;4991165;28;20452;-66
2021/05/02 03:49:35;;;;;;;7.18;5.82;;;10.90;74.80;;;;;;4972820;28;20108;-79
2021/05/02 03:52:01;;;;;;;9.27;6.03;;;10.90;74.70;;;;;;4990779;28;20026;-66
2021/05/02 03:54:27;;;;;;;7.00;5.18;;;10.90;74.80;;;;;;4973581;28;20026;-65
2021/05/02 03:56:53;;;;;;;8.00;5.22;;;10.90;75.10;;;;;;4972788;28;20041;-65
2021/05/02 03:59:26;;;;;;;7.28;5.40;;;10.90;75.10;;;;;;4991093;28;20113;-65
2021/05/02 04:01:57;;;;;;;6.57;5.32;;;10.80;75.50;;;;;;4972886;28;20456;-65
2021/05/02 04:04:25;;;;;;;10.80;5.57;;;10.90;75.60;;;;;;4990792;28;20109;-66
2021/05/02 04:06:57;;;;;;;11.13;6.90;;;10.80;75.80;;;;;;4990222;28;20612;-65
2021/05/02 04:09:23;;;;;;;7.10;5.03;;;10.90;75.60;;;;;;4973354;28;20030;-65
2021/05/02 04:11:48;;;;;;;10.98;5.85;;;10.90;75.30;;;;;;4990041;28;20369;-67
2021/05/02 04:14:16;;;;;;;9.73;6.20;;;11.00;75.30;;;;;;4972862;28;20022;-65
2021/05/02 04:16:42;;;;;;;6.00;5.13;;;10.90;75.90;;;;;;4972614;28;20480;-65
2021/05/02 04:19:09;;;;;;;7.35;5.05;;;10.80;76.20;;;;;;4990784;28;20034;-66
2021/05/02 04:21:37;;;;;;;8.07;5.63;;;10.80;76.70;;;;;;4990684;28;20033;-66
2021/05/02 04:24:04;;;;;;;7.20;5.60;;;10.90;76.90;;;;;;4990567;28;20030;-65
2021/05/02 04:26:29;;;;;;;9.75;5.68;;;10.80;76.90;;;;;;4973658;28;20117;-65
2021/05/02 04:28:55;;;;;;;9.40;6.38;;;10.90;77.10;;;;;;4972292;28;20145;-65
2021/05/02 04:31:21;;;;;;;9.90;4.90;;;10.70;77.80;;;;;;4990562;28;20105;-66
2021/05/02 04:33:47;;;;;;;8.32;5.70;;;10.70;78.60;;;;;;4989649;28;20026;-66
2021/05/02 04:36:13;;;;;;;7.05;5.82;;;10.60;78.50;;;;;;4990270;28;20022;-64
2021/05/02 04:38:39;;;;;;;9.57;5.78;;;10.60;78.80;;;;;;4971959;28;20475;-65
2021/05/02 04:41:05;;;;;;;7.38;5.57;;;10.60;79.10;;;;;;4972681;28;20027;-65
2021/05/02 04:43:31;;;;;;;9.98;6.00;;;10.50;79.30;;;;;;4989678;28;20030;-65
2021/05/02 04:45:57;;;;;;;10.85;5.60;;;10.50;79.80;;;;;;4989875;28;20070;-66
2021/05/02 04:48:23;;;;;;;7.38;6.68;;;10.60;79.50;;;;;;4972628;28;20392;-66
2021/05/02 04:50:49;;;;;;;7.65;6.40;;;10.60;79.80;;;;;;4972242;28;20041;-66
2021/05/02 04:53:14;;;;;;;7.93;6.00;;;10.60;79.60;;;;;;4990405;28;20034;-66
2021/05/02 04:55:40;;;;;;;8.60;6.10;;;10.70;79.60;;;;;;4972049;28;20022;-66
2021/05/02 04:58:06;;;;;;;7.65;6.00;;;10.50;80.40;;;;;;4972555;28;20121;-66
2021/05/02 05:00:33;;;;;;;9.27;6.35;;;10.60;81.00;;;;;;4990184;28;20022;-66
2021/05/02 05:03:00;;;;;;;12.82;7.32;;;10.50;80.80;;;;;;4971460;28;20050;-65
2021/05/02 05:05:26;;;;;;;8.50;6.80;;;10.50;81.30;;;;;;4990157;28;20086;-65
2021/05/02 05:07:51;;;;;;;9.30;7.57;;;10.50;81.50;;;;;;4971895;28;20034;-65
2021/05/02 05:10:17;;;;;;;9.65;7.72;;;10.50;81.80;;;;;;4990286;28;20351;-65
2021/05/02 05:12:43;;;;;;;11.48;8.07;;;10.60;81.80;;;;;;4989712;28;20049;-67
2021/05/02 05:15:10;;;;;;;10.23;7.82;;;10.60;82.10;;;;;;4989745;28;20034;-65
2021/05/02 05:17:36;;;;;;;9.90;7.93;;;10.60;81.80;;;;;;4972352;28;20088;-65
2021/05/02 05:20:03;;;;;;;11.73;7.90;;;10.70;82.00;;;;;;4989587;28;20022;-65
2021/05/02 05:22:28;;;;;;;11.63;8.93;;;10.50;82.70;;;;;;4972349;28;20062;-66
2021/05/02 05:24:54;;;;;;;10.43;8.50;;;10.50;82.70;;;;;;4972005;28;20425;-65
2021/05/02 05:27:20;;;;;;;12.45;7.70;;;10.50;83.20;;;;;;4989839;28;20030;-65
2021/05/02 05:29:45;;;;;;;12.35;8.63;;;10.40;83.80;;;;;;4989127;28;20042;-67
2021/05/02 05:32:11;;;;;;;12.27;9.02;;;10.30;85.10;;;;;;4989799;28;20037;-65
2021/05/02 05:34:37;;;;;;;11.48;8.32;;;10.30;85.80;;;;;;4972340;28;20034;-65
2021/05/02 05:37:02;;;;;;;13.35;9.27;;;10.40;85.40;;;;;;4971694;28;20030;-66
2021/05/02 05:39:28;;;;;;;10.70;9.60;;;10.30;86.10;;;;;;4972345;28;20125;-65
2021/05/02 05:41:54;;;;;;;12.32;9.15;;;10.30;86.50;;;;;;4989318;28;20464;-65
2021/05/02 05:44:19;;;;;;;12.18;9.88;;;10.40;86.80;;;;;;4971962;28;20101;-66
2021/05/02 05:46:45;;;;;;;12.75;9.40;;;10.50;87.00;;;;;;4989361;28;20050;-67
2021/05/02 05:49:11;;;;;;;12.15;9.52;;;10.50;87.20;;;;;;4972259;28;20097;-66
2021/05/02 05:51:37;;;;;;;11.60;9.32;;;10.60;87.70;;;;;;4990025;28;20217;-65
2021/05/02 05:54:03;;;;;;;10.65;8.60;;;10.60;87.80;;;;;;4989689;28;20109;-64
2021/05/02 05:56:29;;;;;;;12.20;9.57;;;10.70;87.80;;;;;;4992406;28;20030;-66
2021/05/02 05:58:54;;;;;;;14.20;10.75;;;10.90;87.40;;;;;;4992312;28;20034;-65
2021/05/02 06:01:20;;;;;;;12.18;9.75;;;10.90;86.80;;;;;;4975053;28;20092;-66
2021/05/02 06:03:45;;;;;;;15.95;10.13;;;10.80;87.50;;;;;;4992629;28;20522;-66
2021/05/02 06:06:11;;;;;;;12.75;9.88;;;10.90;87.90;;;;;;4975313;28;20022;-65
2021/05/02 06:08:37;;;;;;;17.13;11.82;;;10.90;87.90;;;;;;4992606;28;20038;-66
2021/05/02 06:11:02;;;;;;;14.38;10.65;;;10.80;87.10;;;;;;4992230;28;20326;-66
2021/05/02 06:13:28;;;;;;;13.50;10.77;;;10.80;87.40;;;;;;4993185;28;20030;-65
2021/05/02 06:15:54;;;;;;;15.93;11.25;;;10.90;87.70;;;;;;4974450;28;20112;-65
2021/05/02 06:18:19;;;;;;;17.10;12.27;;;11.10;87.30;;;;;;4993035;28;20037;-66
2021/05/02 06:20:45;;;;;;;16.63;12.25;;;11.00;86.60;;;;;;4992338;28;20096;-68
2021/05/02 06:23:11;;;;;;;16.33;13.20;;;10.90;87.00;;;;;;4975324;28;20032;-67
2021/05/02 06:25:36;;;;;;;16.20;14.27;;;10.80;88.40;;;;;;4992892;28;20037;-67
2021/05/02 06:28:02;;;;;;;22.10;16.20;;;10.80;89.10;;;;;;4974361;28;20376;-65
2021/05/02 06:30:28;;;;;;;15.95;14.25;;;10.70;89.70;;;;;;4992657;28;20038;-66
2021/05/02 06:32:53;;;;;;;20.20;15.48;;;10.80;89.90;;;;;;4974376;28;20128;-64
2021/05/02 06:35:19;;;;;;;19.90;15.48;;;10.90;89.30;;;;;;4975011;28;20069;-67
2021/05/02 06:37:45;;;;;;;20.67;15.80;;;10.60;90.40;;;;;;4974250;28;20222;-77
2021/05/02 06:40:11;;;;;;;21.42;16.38;;;10.70;90.40;;;;;;4974666;28;20114;-66
2021/05/02 06:42:37;;;;;;;20.95;16.55;;;10.70;89.90;;;;;;4974528;28;20419;-66
2021/05/02 06:45:03;;;;;;;24.40;17.33;;;10.70;90.30;;;;;;4991149;28;20154;-65
2021/05/02 06:47:29;;;;;;;19.45;16.25;;;10.70;90.40;;;;;;4974510;28;20496;-67
2021/05/02 06:49:55;;;;;;;21.25;16.45;;;10.70;90.70;;;;;;4974092;28;20035;-67
2021/05/02 06:52:20;;;;;;;19.75;16.50;;;10.80;90.60;;;;;;4991930;28;20085;-65
2021/05/02 06:54:46;;;;;;;18.13;14.15;;;10.80;90.70;;;;;;4991342;28;20031;-70
2021/05/02 06:57:12;;;;;;;19.10;13.45;;;10.70;89.40;;;;;;4992141;28;20030;-66
2021/05/02 06:59:38;;;;;;;14.45;12.85;;;10.70;87.60;;;;;;4973952;28;20085;-66
2021/05/02 07:02:04;;;;;;;15.85;11.60;;;11.00;85.80;;;;;;4990933;28;20140;-66
2021/05/02 07:04:33;;;;;;;15.73;12.20;;;11.30;85.00;;;;;;4974026;28;20027;-65
2021/05/02 07:06:59;;;;;;;13.75;10.38;;;11.50;82.90;;;;;;4972732;28;20041;-65
2021/05/02 07:09:25;;;;;;;12.55;9.80;;;11.80;80.20;;;;;;4991148;28;20045;-66
2021/05/02 07:11:51;;;;;;;11.30;9.10;;;12.10;78.60;;;;;;4973197;28;20386;-66
2021/05/02 07:14:17;;;;;;;11.20;9.05;;;12.00;78.10;;;;;;4991703;28;20445;-66
2021/05/02 07:16:43;;;;;;;11.15;8.27;;;12.40;77.90;;;;;;4991171;28;20030;-65
2021/05/02 07:19:08;;;;;;;18.25;8.68;;;12.50;75.40;;;;;;4991010;28;20456;-66
2021/05/02 07:21:34;;;;;;;10.13;7.90;;;12.70;74.70;;;;;;4973688;28;20026;-66
2021/05/02 07:24:00;;;;;;;10.18;8.40;;;12.90;72.60;;;;;;4973058;28;20026;-66
2021/05/02 07:26:25;;;;;;;10.57;8.05;;;13.00;73.70;;;;;;4973727;28;20037;-65
2021/05/02 07:28:51;;;;;;;10.05;7.78;;;13.30;71.50;;;;;;4972977;28;20054;-66
2021/05/02 07:31:18;;;;;;;9.73;7.53;;;13.30;71.70;;;;;;4992013;28;20030;-66
2021/05/02 07:33:44;;;;;;;9.77;7.55;;;13.50;68.30;;;;;;4991587;28;20030;-66
2021/05/02 07:36:12;;;;;;;7.93;7.03;;;13.40;68.20;;;;;;4972849;28;20027;-66
2021/05/02 07:38:37;;;;;;;8.48;6.72;;;13.20;67.20;;;;;;4973280;28;20422;-68
2021/05/02 07:41:04;;;;;;;10.48;7.57;;;13.30;66.60;;;;;;4966482;28;20118;-66
2021/05/02 07:43:31;;;;;;;7.55;6.25;;;13.60;67.30;;;;;;4955178;28;20022;-66
2021/05/02 07:45:56;;;;;;;10.35;7.38;;;13.70;64.90;;;;;;4974759;28;20051;-66
2021/05/02 07:48:22;;;;;;;8.80;6.40;;;13.50;64.20;;;;;;4953158;28;20035;-66
2021/05/02 07:50:48;;;;;;;9.32;6.32;;;13.10;66.00;;;;;;4953125;28;20062;-65
2021/05/02 07:53:16;;;;;;;8.45;6.18;;;13.20;66.60;;;;;;4970399;28;20023;-66
2021/05/02 07:55:41;;;;;;;8.43;5.22;;;13.80;68.20;;;;;;4953050;28;20027;-66
2021/05/02 07:58:07;;;;;;;19.08;6.00;;;14.40;66.80;;;;;;4952176;28;20396;-65
2021/05/02 08:00:33;;;;;;;9.40;5.90;;;14.80;64.70;;;;;;4952493;28;20074;-66
2021/05/02 08:02:58;;;;;;;8.23;6.03;;;15.10;63.70;;;;;;4970975;28;20026;-66
2021/05/02 08:05:24;;;;;;;8.60;5.70;;;14.90;61.20;;;;;;4978914;28;20030;-67
2021/05/02 08:07:50;;;;;;;7.50;6.45;;;14.40;60.70;;;;;;4976864;28;20026;-74
2021/05/02 08:10:17;;;;;;;7.57;5.55;;;14.10;61.20;;;;;;4955160;28;20026;-65
2021/05/02 08:12:43;;;;;;;9.90;6.88;;;14.00;63.00;;;;;;4953741;28;20046;-67
2021/05/02 08:15:09;;;;;;;8.38;5.53;;;14.00;63.90;;;;;;4967258;28;20648;-69
2021/05/02 08:17:36;;;;;;;11.20;7.03;;;14.00;64.50;;;;;;4968791;28;20034;-66
2021/05/02 08:20:04;;;;;;;8.98;7.80;;;14.00;62.60;;;;;;4970030;28;20027;-66
2021/05/02 08:22:30;;;;;;;8.25;7.20;;;13.40;64.10;;;;;;4950924;28;20377;-66
2021/05/02 08:24:55;;;;;;;10.07;7.47;;;13.20;66.60;;;;;;4955443;28;20030;-67
2021/05/02 08:27:21;;;;;;;12.07;7.82;;;13.40;67.40;;;;;;4971877;28;20410;-66
2021/05/02 08:29:47;;;;;;;9.27;6.95;;;14.00;66.00;;;;;;4976227;28;20041;-65
2021/05/02 08:32:12;;;;;;;11.02;6.95;;;14.40;63.40;;;;;;4975290;28;20027;-70
2021/05/02 08:34:38;;;;;;;10.38;7.88;;;14.40;63.00;;;;;;4966994;28;20110;-67
2021/05/02 08:37:06;;;;;;;11.68;7.10;;;14.40;62.40;;;;;;4949584;28;20460;-66
2021/05/02 08:39:32;;;;;;;11.82;7.45;;;14.40;62.60;;;;;;4973065;28;20046;-67
2021/05/02 08:41:58;;;;;;;9.98;6.88;;;14.50;61.30;;;;;;4958871;28;20116;-65
2021/05/02 08:44:24;;;;;;;11.98;7.50;;;14.80;62.10;;;;;;4960926;28;20105;-64
2021/05/02 08:46:53;;;;;;;8.68;7.40;;;15.00;61.10;;;;;;4955496;28;20094;-73
2021/05/02 08:49:19;;;;;;;9.80;6.30;;;14.80;61.20;;;;;;4969987;28;20081;-61
2021/05/02 08:51:46;;;;;;;11.32;6.78;;;14.90;66.80;;;;;;4950268;28;20113;-60
2021/05/02 08:54:12;;;;;;;7.75;6.72;;;15.20;64.10;;;;;;4979424;28;20034;-61
2021/05/02 08:56:38;;;;;;;8.75;7.22;;;15.60;62.80;;;;;;4975103;28;20038;-64
2021/05/02 08:59:06;;;;;;;8.57;7.22;;;15.70;60.80;;;;;;4951470;28;20030;-63
2021/05/02 09:01:34;;;;;;;9.07;6.43;;;15.50;59.80;;;;;;4951869;28;20500;-65
2021/05/02 09:04:04;;;;;;;9.85;6.53;;;15.80;59.80;;;;;;4935196;28;20039;-64
2021/05/02 09:06:31;;;;;;;6.00;4.88;;;15.60;57.60;;;;;;4969434;28;20030;-66
2021/05/02 09:09:03;;;;;;;7.45;5.15;;;15.00;58.40;;;;;;4968771;28;20476;-64
2021/05/02 09:11:38;;;;;;;7.35;5.28;;;15.60;58.20;;;;;;4969330;28;20043;-64
2021/05/02 09:14:10;;;;;;;5.22;4.72;;;15.40;57.40;;;;;;4968942;28;20488;-66
2021/05/02 09:16:51;;;;;;;6.95;5.70;;;15.90;59.60;;;;;;4952125;28;20035;-68
2021/05/02 09:19:22;;;;;;;6.55;4.57;;;16.60;67.10;;;;;;4974391;28;20029;-65
2021/05/02 09:21:48;;;;;;;5.50;3.95;;;17.40;58.90;;;;;;4959308;28;20030;-67
2021/05/02 09:24:30;;;;;;;9.13;5.63;;;17.60;68.60;;;;;;4957261;28;20101;-66
2021/05/02 09:27:15;;;;;;;8.00;6.70;;;17.50;55.40;;;;;;4951150;28;20038;-69
2021/05/02 09:29:45;;;;;;;8.85;6.40;;;16.70;55.40;;;;;;4954401;28;20128;-67
2021/05/02 09:32:13;;;;;;;6.78;5.63;;;15.70;56.20;;;;;;4954809;28;20142;-67
2021/05/02 09:34:50;;;;;;;8.70;7.15;;;14.90;58.00;;;;;;4955765;28;20053;-68
2021/05/02 09:37:17;;;;;;;12.75;6.25;;;15.20;59.30;;;;;;4954342;28;20172;-63
2021/05/02 09:39:53;;;;;;;11.95;5.65;;;15.60;66.10;;;;;;4955865;28;20046;-64
2021/05/02 09:42:24;;;;;;;8.07;5.22;;;15.80;60.70;;;;;;4971367;28;20022;-65
2021/05/02 09:44:58;;;;;;;6.25;5.15;;;16.00;56.60;;;;;;4948915;28;20121;-66
2021/05/02 09:47:32;;;;;;;7.80;4.28;;;16.60;60.30;;;;;;4971064;28;20038;-64
2021/05/02 09:50:08;;;;;;;5.72;4.47;;;16.60;58.60;;;;;;4971649;28;20515;-62
2021/05/02 09:52:56;;;;;;;6.97;4.68;;;16.20;58.90;;;;;;4961297;28;20030;-64
2021/05/02 09:55:30;;;;;;;7.80;4.20;;;16.00;56.30;;;;;;4959721;28;20026;-62
2021/05/02 09:58:16;;;;;;;5.22;4.20;;;16.60;55.00;;;;;;4978404;28;20041;-64
2021/05/02 10:01:02;;;;;;;4.90;3.70;;;16.60;54.70;;;;;;4977872;28;20186;-63
2021/05/02 10:03:31;;;;;;;7.50;3.70;;;17.10;54.60;;;;;;4959701;28;20469;-63
2021/05/02 10:06:03;;;;;;;7.28;3.28;;;16.50;55.60;;;;;;4971097;28;20095;-62
2021/05/02 10:08:37;;;;;;;5.15;3.50;;;16.40;58.20;;;;;;4952536;28;20082;-63
2021/05/02 10:11:07;;;;;;;3.60;3.05;;;16.00;55.10;;;;;;4952906;28;20117;-63
2021/05/02 10:13:34;;;;;;;5.82;2.97;;;15.80;56.50;;;;;;4965156;28;20468;-63
2021/05/02 10:16:00;;;;;;;9.77;4.00;;;15.90;56.00;;;;;;4952959;28;20151;-64
2021/05/02 10:18:26;;;;;;;5.10;3.83;;;16.40;60.70;;;;;;4954319;28;20080;-66
2021/05/02 10:20:52;;;;;;;5.38;3.30;;;17.50;58.70;;;;;;4952289;28;20495;-78
2021/05/02 10:23:18;;;;;;;5.88;3.63;;;18.00;61.30;;;;;;4953383;28;20050;-63
2021/05/02 10:25:47;;;;;;;7.72;2.88;;;17.90;53.50;;;;;;4953542;28;20177;-63
2021/05/02 10:28:33;;;;;;;5.95;3.30;;;17.90;59.30;;;;;;4964490;28;20041;-64
2021/05/02 10:31:04;;;;;;;5.10;3.28;;;17.40;58.30;;;;;;4963913;28;20084;-65
2021/05/02 10:33:37;;;;;;;3.72;2.42;;;17.00;59.30;;;;;;4954383;28;20141;-64
2021/05/02 10:36:05;;;;;;;3.10;2.80;;;16.60;63.30;;;;;;4974413;28;20058;-65
2021/05/02 10:38:57;;;;;;;5.18;3.20;;;16.60;60.80;;;;;;4965178;28;20034;-68
2021/05/02 10:41:29;;;;;;;6.22;3.03;;;16.50;64.80;;;;;;4952977;28;20073;-67
2021/05/02 10:43:57;;;;;;;4.15;2.75;;;16.20;61.70;;;;;;4952063;28;20042;-75
2021/05/02 10:46:44;;;;;;;3.30;2.20;;;16.60;67.90;;;;;;4950522;28;20077;-66
2021/05/02 10:49:18;;;;;;;3.40;2.65;;;17.20;65.60;;;;;;4953384;28;20113;-64
2021/05/02 10:51:48;;;;;;;2.95;2.33;;;17.60;65.30;;;;;;4952128;28;20030;-72
2021/05/02 10:54:21;;;;;;;3.45;2.78;;;18.10;61.60;;;;;;4979195;28;20559;-68
2021/05/02 10:56:53;;;;;;;3.33;1.80;;;18.20;63.70;;;;;;4960815;28;20117;-64
2021/05/02 10:59:58;;;;;;;3.95;2.05;;;18.30;62.40;;;;;;4976255;28;20428;-64
2021/05/02 11:02:53;;;;;;;3.60;2.00;;;18.90;57.50;;;;;;4975175;28;20038;-63
2021/05/02 11:05:19;;;;;;;4.65;1.98;;;19.60;57.40;;;;;;4941004;28;20133;-52
2021/05/02 11:07:47;;;;;;;4.50;1.58;;;20.00;56.90;;;;;;4970002;28;20034;-51
2021/05/02 11:10:16;;;;;;;3.80;1.13;;;20.20;57.00;;;;;;4952529;28;20216;-53
2021/05/02 11:12:42;;;;;;;3.10;1.50;;;20.20;54.60;;;;;;4946896;28;20338;-52
2021/05/02 11:15:26;;;;;;;1.77;1.63;;;20.00;56.20;;;;;;4935727;28;20050;-51
2021/05/02 11:17:53;;;;;;;4.72;2.25;;;19.30;69.90;;;;;;4953368;28;20034;-67
2021/05/02 11:20:43;;;;;;;5.95;2.00;;;18.50;70.10;;;;;;4970734;28;20031;-51
2021/05/02 11:23:09;;;;;;;3.70;1.52;;;18.40;65.40;;;;;;4966239;28;20100;-51
2021/05/02 11:25:47;;;;;;;2.50;1.63;;;18.40;62.90;;;;;;4969330;28;20110;-53
2021/05/02 11:28:42;;;;;;;2.20;1.88;;;18.40;61.30;;;;;;4952781;28;20096;-65
2021/05/02 11:31:07;;;;;;;3.08;1.92;;;17.60;56.70;;;;;;4944046;28;20039;-67
2021/05/02 11:33:33;;;;;;;2.88;2.25;;;17.00;53.50;;;;;;4952033;28;20034;-67
2021/05/02 11:35:59;;;;;;;4.05;3.00;;;16.30;62.80;;;;;;4955973;28;20480;-68
2021/05/02 11:38:40;;;;;;;2.58;2.22;;;15.80;54.00;;;;;;4971371;28;20081;-71
2021/05/02 11:41:08;;;;;;;2.90;2.15;;;14.70;55.30;;;;;;4951305;28;20026;-69
2021/05/02 11:43:36;;;;;;;3.83;2.33;;;14.30;56.60;;;;;;4968774;28;20132;-68
2021/05/02 11:46:16;;;;;;;4.68;2.38;;;14.20;57.20;;;;;;4950684;28;20050;-68
2021/05/02 11:48:42;;;;;;;5.03;2.60;;;14.30;58.50;;;;;;4969449;28;20034;-68
2021/05/02 11:51:31;;;;;;;5.05;3.03;;;14.20;56.70;;;;;;4968698;28;20046;-69
2021/05/02 11:53:58;;;;;;;3.15;2.85;;;13.90;57.40;;;;;;4948320;29;20031;-71
2021/05/02 11:56:33;;;;;;;4.55;2.70;;;13.90;58.40;;;;;;4951833;28;20461;-69
2021/05/02 11:59:09;;;;;;;4.85;3.10;;;13.90;58.40;;;;;;4969320;28;20042;-70
2021/05/02 12:01:38;;;;;;;6.22;3.72;;;13.60;59.70;;;;;;4951813;28;20063;-68
2021/05/02 12:04:16;;;;;;;3.85;3.42;;;13.70;60.10;;;;;;4951192;28;20070;-69
2021/05/02 12:06:44;;;;;;;6.47;3.60;;;14.10;59.40;;;;;;4951151;28;20528;-68
2021/05/02 12:09:17;;;;;;;3.60;3.30;;;14.40;58.60;;;;;;4950501;28;20075;-68
2021/05/02 12:11:46;;;;;;;7.95;3.50;;;14.70;58.10;;;;;;4951852;28;20134;-67
2021/05/02 12:14:19;;;;;;;3.47;3.17;;;14.90;57.30;;;;;;4950668;28;20129;-69
2021/05/02 12:16:59;;;;;;;4.13;3.22;;;15.70;56.70;;;;;;4968163;28;20042;-66
2021/05/02 12:19:26;;;;;;;3.45;2.80;;;16.50;55.30;;;;;;4968673;28;20023;-68
2021/05/02 12:21:53;;;;;;;3.92;2.78;;;17.00;52.50;;;;;;4966641;28;20031;-68
2021/05/02 12:24:23;;;;;;;4.65;3.50;;;16.70;52.80;;;;;;4949985;28;20169;-68
2021/05/02 12:26:52;;;;;;;4.07;3.25;;;16.20;52.10;;;;;;4968417;28;20026;-69
2021/05/02 12:29:33;;;;;;;5.50;3.10;;;16.20;53.80;;;;;;4963218;28;20057;-73
2021/05/02 12:32:08;;;;;;;3.78;3.17;;;16.10;53.50;;;;;;4949402;28;20030;-66
2021/05/02 12:34:36;;;;;;;3.30;2.88;;;15.90;52.60;;;;;;4950837;28;20130;-69
2021/05/02 12:37:19;;;;;;;4.93;3.20;;;15.40;54.00;;;;;;4949321;28;20047;-67
2021/05/02 12:39:47;;;;;;;3.58;2.75;;;15.30;54.50;;;;;;4949618;28;20104;-65
2021/05/02 12:42:15;;;;;;;3.15;2.95;;;15.10;53.50;;;;;;4974153;28;20069;-67
2021/05/02 12:44:51;;;;;;;3.58;2.95;;;14.90;54.80;;;;;;4975771;28;20145;-67
2021/05/02 12:47:20;;;;;;;3.55;2.63;;;14.80;56.00;;;;;;4957399;28;20027;-68
2021/05/02 12:49:57;;;;;;;3.70;2.85;;;14.70;55.10;;;;;;4957848;28;20062;-68
2021/05/02 12:52:29;;;;;;;4.88;2.35;;;14.60;55.60;;;;;;4953452;28;20518;-67
2021/05/02 12:54:55;;;;;;;4.38;2.53;;;14.50;55.80;;;;;;4942721;28;20035;-74